sensor_id;sensor_type;location;lat;lon;timestamp;P1;durP1;ratioP1;P2;durP2;ratioP2
75716;SDS011;64333;50.138;14.332;2023-07-20T00:01:56;2.17;;;1.97;;
75716;SDS011;64333;50.138;14.332;2023-07-20T00:04:22;4.13;;;2.43;;
75716;SDS011;64333;50.138;14.332;2023-07-20T00:06:47;3.50;;;2.23;;
75716;SDS011;64333;50.138;14.332;2023-07-20T00:09:12;3.10;;;2.30;;
75716;SDS011;64333;50.138;14.332;2023-07-20T00:11:37;4.27;;;2.17;;
75716;SDS011;64333;50.138;14.332;2023-07-20T00:14:03;4.57;;;2.75;;
75716;SDS011;64333;50.138;14.332;2023-07-20T00:16:29;4.78;;;2.50;;
75716;SDS011;64333;50.138;14.332;2023-07-20T00:18:54;6.67;;;2.63;;
75716;SDS011;64333;50.138;14.332;2023-07-20T00:21:19;4.70;;;2.40;;
75716;SDS011;64333;50.138;14.332;2023-07-20T00:23:45;2.90;;;2.40;;
75716;SDS011;64333;50.138;14.332;2023-07-20T00:26:10;6.23;;;2.33;;
75716;SDS011;64333;50.138;14.332;2023-07-20T00:28:35;2.97;;;2.20;;
75716;SDS011;64333;50.138;14.332;2023-07-20T00:31:00;4.07;;;2.17;;
75716;SDS011;64333;50.138;14.332;2023-07-20T00:33:26;4.57;;;2.45;;
75716;SDS011;64333;50.138;14.332;2023-07-20T00:35:51;5.18;;;2.55;;
75716;SDS011;64333;50.138;14.332;2023-07-20T00:38:17;3.27;;;2.33;;
75716;SDS011;64333;50.138;14.332;2023-07-20T00:40:45;6.17;;;2.67;;
75716;SDS011;64333;50.138;14.332;2023-07-20T00:43:10;4.65;;;2.88;;
75716;SDS011;64333;50.138;14.332;2023-07-20T00:45:36;4.07;;;2.73;;
75716;SDS011;64333;50.138;14.332;2023-07-20T00:48:01;5.10;;;3.38;;
75716;SDS011;64333;50.138;14.332;2023-07-20T00:50:30;4.60;;;2.95;;
75716;SDS011;64333;50.138;14.332;2023-07-20T00:52:55;5.15;;;2.97;;
75716;SDS011;64333;50.138;14.332;2023-07-20T00:55:21;4.65;;;2.33;;
75716;SDS011;64333;50.138;14.332;2023-07-20T00:57:47;4.55;;;2.85;;
75716;SDS011;64333;50.138;14.332;2023-07-20T01:00:13;5.03;;;3.03;;
75716;SDS011;64333;50.138;14.332;2023-07-20T01:02:38;4.70;;;2.67;;
75716;SDS011;64333;50.138;14.332;2023-07-20T01:05:03;3.77;;;3.00;;
75716;SDS011;64333;50.138;14.332;2023-07-20T01:10:10;4.03;;;2.90;;
75716;SDS011;64333;50.138;14.332;2023-07-20T01:12:43;3.22;;;2.55;;
75716;SDS011;64333;50.138;14.332;2023-07-20T01:15:08;3.80;;;2.92;;
75716;SDS011;64333;50.138;14.332;2023-07-20T01:17:34;4.85;;;2.63;;
75716;SDS011;64333;50.138;14.332;2023-07-20T01:19:59;5.18;;;3.05;;
75716;SDS011;64333;50.138;14.332;2023-07-20T01:22:42;4.28;;;3.00;;
75716;SDS011;64333;50.138;14.332;2023-07-20T01:25:21;4.15;;;2.58;;
75716;SDS011;64333;50.138;14.332;2023-07-20T01:32:57;5.00;;;2.97;;
75716;SDS011;64333;50.138;14.332;2023-07-20T01:35:25;2.65;;;2.25;;
75716;SDS011;64333;50.138;14.332;2023-07-20T01:37:50;3.50;;;2.33;;
75716;SDS011;64333;50.138;14.332;2023-07-20T01:40:16;3.58;;;2.25;;
75716;SDS011;64333;50.138;14.332;2023-07-20T01:42:45;4.55;;;2.88;;
75716;SDS011;64333;50.138;14.332;2023-07-20T01:45:11;3.53;;;2.30;;
75716;SDS011;64333;50.138;14.332;2023-07-20T01:47:36;3.15;;;2.55;;
75716;SDS011;64333;50.138;14.332;2023-07-20T01:50:01;2.80;;;2.40;;
75716;SDS011;64333;50.138;14.332;2023-07-20T01:52:27;3.67;;;2.47;;
75716;SDS011;64333;50.138;14.332;2023-07-20T01:54:52;4.23;;;2.50;;
75716;SDS011;64333;50.138;14.332;2023-07-20T01:57:17;5.17;;;2.50;;
75716;SDS011;64333;50.138;14.332;2023-07-20T01:59:42;3.20;;;2.40;;
75716;SDS011;64333;50.138;14.332;2023-07-20T02:02:08;5.33;;;2.60;;
75716;SDS011;64333;50.138;14.332;2023-07-20T02:04:33;3.83;;;2.63;;
75716;SDS011;64333;50.138;14.332;2023-07-20T02:06:58;3.93;;;2.73;;
75716;SDS011;64333;50.138;14.332;2023-07-20T02:09:23;4.05;;;2.60;;
75716;SDS011;64333;50.138;14.332;2023-07-20T02:11:49;4.80;;;2.50;;
75716;SDS011;64333;50.138;14.332;2023-07-20T02:14:15;2.83;;;2.53;;
75716;SDS011;64333;50.138;14.332;2023-07-20T02:16:40;4.13;;;2.93;;
75716;SDS011;64333;50.138;14.332;2023-07-20T02:19:05;3.10;;;2.70;;
75716;SDS011;64333;50.138;14.332;2023-07-20T02:21:32;3.50;;;2.20;;
75716;SDS011;64333;50.138;14.332;2023-07-20T02:23:57;4.73;;;2.93;;
75716;SDS011;64333;50.138;14.332;2023-07-20T02:26:22;4.13;;;2.83;;
75716;SDS011;64333;50.138;14.332;2023-07-20T02:28:48;4.75;;;3.35;;
75716;SDS011;64333;50.138;14.332;2023-07-20T02:31:13;4.53;;;3.30;;
75716;SDS011;64333;50.138;14.332;2023-07-20T02:33:38;4.13;;;3.10;;
75716;SDS011;64333;50.138;14.332;2023-07-20T02:36:04;5.57;;;3.77;;
75716;SDS011;64333;50.138;14.332;2023-07-20T02:38:29;5.03;;;3.05;;
75716;SDS011;64333;50.138;14.332;2023-07-20T02:40:54;9.10;;;3.20;;
75716;SDS011;64333;50.138;14.332;2023-07-20T02:43:19;4.33;;;2.87;;
75716;SDS011;64333;50.138;14.332;2023-07-20T02:45:45;3.97;;;3.00;;
75716;SDS011;64333;50.138;14.332;2023-07-20T02:48:10;4.43;;;3.10;;
75716;SDS011;64333;50.138;14.332;2023-07-20T02:50:35;4.37;;;2.80;;
75716;SDS011;64333;50.138;14.332;2023-07-20T02:53:01;5.50;;;3.17;;
75716;SDS011;64333;50.138;14.332;2023-07-20T02:55:27;4.70;;;3.13;;
75716;SDS011;64333;50.138;14.332;2023-07-20T02:57:52;3.72;;;2.65;;
75716;SDS011;64333;50.138;14.332;2023-07-20T03:00:17;4.97;;;2.83;;
75716;SDS011;64333;50.138;14.332;2023-07-20T03:02:44;4.32;;;3.35;;
75716;SDS011;64333;50.138;14.332;2023-07-20T03:05:12;3.88;;;3.10;;
75716;SDS011;64333;50.138;14.332;2023-07-20T03:07:37;4.57;;;2.83;;
75716;SDS011;64333;50.138;14.332;2023-07-20T03:10:03;4.20;;;3.27;;
75716;SDS011;64333;50.138;14.332;2023-07-20T03:12:28;4.07;;;3.00;;
75716;SDS011;64333;50.138;14.332;2023-07-20T03:14:53;3.17;;;2.40;;
75716;SDS011;64333;50.138;14.332;2023-07-20T03:17:19;4.15;;;2.90;;
75716;SDS011;64333;50.138;14.332;2023-07-20T03:19:45;5.10;;;3.17;;
75716;SDS011;64333;50.138;14.332;2023-07-20T03:22:10;5.53;;;3.05;;
75716;SDS011;64333;50.138;14.332;2023-07-20T03:24:36;4.87;;;2.70;;
75716;SDS011;64333;50.138;14.332;2023-07-20T03:27:01;6.47;;;2.83;;
75716;SDS011;64333;50.138;14.332;2023-07-20T03:29:26;3.93;;;3.10;;
75716;SDS011;64333;50.138;14.332;2023-07-20T03:31:51;4.03;;;3.60;;
75716;SDS011;64333;50.138;14.332;2023-07-20T03:34:16;3.80;;;3.30;;
75716;SDS011;64333;50.138;14.332;2023-07-20T03:36:42;3.90;;;3.15;;
75716;SDS011;64333;50.138;14.332;2023-07-20T03:39:07;5.07;;;3.13;;
75716;SDS011;64333;50.138;14.332;2023-07-20T03:41:32;6.87;;;3.33;;
75716;SDS011;64333;50.138;14.332;2023-07-20T03:43:58;5.10;;;2.88;;
75716;SDS011;64333;50.138;14.332;2023-07-20T03:46:23;6.85;;;3.80;;
75716;SDS011;64333;50.138;14.332;2023-07-20T03:48:48;5.93;;;3.03;;
75716;SDS011;64333;50.138;14.332;2023-07-20T03:51:14;6.80;;;3.17;;
75716;SDS011;64333;50.138;14.332;2023-07-20T03:53:39;3.83;;;2.87;;
75716;SDS011;64333;50.138;14.332;2023-07-20T03:56:04;4.78;;;3.20;;
75716;SDS011;64333;50.138;14.332;2023-07-20T03:58:30;3.73;;;2.97;;
75716;SDS011;64333;50.138;14.332;2023-07-20T04:00:56;5.35;;;3.47;;
75716;SDS011;64333;50.138;14.332;2023-07-20T04:03:22;3.97;;;3.08;;
75716;SDS011;64333;50.138;14.332;2023-07-20T04:05:49;4.88;;;3.17;;
75716;SDS011;64333;50.138;14.332;2023-07-20T04:08:14;4.07;;;2.63;;
75716;SDS011;64333;50.138;14.332;2023-07-20T04:10:43;8.53;;;3.40;;
75716;SDS011;64333;50.138;14.332;2023-07-20T04:13:08;5.75;;;3.55;;
75716;SDS011;64333;50.138;14.332;2023-07-20T04:15:33;4.57;;;2.90;;
75716;SDS011;64333;50.138;14.332;2023-07-20T04:17:58;5.07;;;3.10;;
75716;SDS011;64333;50.138;14.332;2023-07-20T04:20:24;5.50;;;3.60;;
75716;SDS011;64333;50.138;14.332;2023-07-20T04:22:49;5.63;;;3.63;;
75716;SDS011;64333;50.138;14.332;2023-07-20T04:25:14;4.47;;;2.85;;
75716;SDS011;64333;50.138;14.332;2023-07-20T04:27:40;5.22;;;3.25;;
75716;SDS011;64333;50.138;14.332;2023-07-20T04:30:07;4.43;;;3.03;;
75716;SDS011;64333;50.138;14.332;2023-07-20T04:32:32;4.57;;;3.42;;
75716;SDS011;64333;50.138;14.332;2023-07-20T04:34:58;3.60;;;3.10;;
75716;SDS011;64333;50.138;14.332;2023-07-20T04:37:24;4.18;;;3.25;;
75716;SDS011;64333;50.138;14.332;2023-07-20T04:39:49;5.17;;;3.50;;
75716;SDS011;64333;50.138;14.332;2023-07-20T04:42:14;4.22;;;2.97;;
75716;SDS011;64333;50.138;14.332;2023-07-20T04:44:40;3.70;;;3.33;;
75716;SDS011;64333;50.138;14.332;2023-07-20T04:47:06;4.30;;;3.38;;
75716;SDS011;64333;50.138;14.332;2023-07-20T04:49:31;4.87;;;3.50;;
75716;SDS011;64333;50.138;14.332;2023-07-20T04:51:56;4.93;;;3.40;;
75716;SDS011;64333;50.138;14.332;2023-07-20T04:54:22;5.35;;;3.83;;
75716;SDS011;64333;50.138;14.332;2023-07-20T04:56:47;5.32;;;3.45;;
75716;SDS011;64333;50.138;14.332;2023-07-20T04:59:12;5.17;;;4.13;;
75716;SDS011;64333;50.138;14.332;2023-07-20T05:01:38;5.20;;;3.85;;
75716;SDS011;64333;50.138;14.332;2023-07-20T05:04:03;8.77;;;5.97;;
75716;SDS011;64333;50.138;14.332;2023-07-20T05:06:29;4.55;;;3.75;;
75716;SDS011;64333;50.138;14.332;2023-07-20T05:08:54;4.60;;;3.78;;
75716;SDS011;64333;50.138;14.332;2023-07-20T05:11:19;4.87;;;3.80;;
75716;SDS011;64333;50.138;14.332;2023-07-20T05:13:45;4.45;;;3.55;;
75716;SDS011;64333;50.138;14.332;2023-07-20T05:16:10;5.87;;;3.63;;
75716;SDS011;64333;50.138;14.332;2023-07-20T05:18:35;5.47;;;3.50;;
75716;SDS011;64333;50.138;14.332;2023-07-20T05:21:00;4.40;;;3.57;;
75716;SDS011;64333;50.138;14.332;2023-07-20T05:23:26;4.07;;;3.15;;
75716;SDS011;64333;50.138;14.332;2023-07-20T05:25:54;4.47;;;3.60;;
75716;SDS011;64333;50.138;14.332;2023-07-20T05:28:21;4.82;;;3.90;;
75716;SDS011;64333;50.138;14.332;2023-07-20T05:30:46;5.67;;;4.17;;
75716;SDS011;64333;50.138;14.332;2023-07-20T05:33:11;4.15;;;3.30;;
75716;SDS011;64333;50.138;14.332;2023-07-20T05:35:37;3.63;;;3.33;;
75716;SDS011;64333;50.138;14.332;2023-07-20T05:38:02;4.82;;;3.58;;
75716;SDS011;64333;50.138;14.332;2023-07-20T05:40:29;5.28;;;3.90;;
75716;SDS011;64333;50.138;14.332;2023-07-20T05:42:54;4.43;;;3.37;;
75716;SDS011;64333;50.138;14.332;2023-07-20T05:45:21;4.28;;;3.63;;
75716;SDS011;64333;50.138;14.332;2023-07-20T05:47:47;6.32;;;3.65;;
75716;SDS011;64333;50.138;14.332;2023-07-20T05:50:12;5.38;;;3.60;;
75716;SDS011;64333;50.138;14.332;2023-07-20T05:52:37;4.53;;;3.43;;
75716;SDS011;64333;50.138;14.332;2023-07-20T05:55:04;3.97;;;3.58;;
75716;SDS011;64333;50.138;14.332;2023-07-20T05:57:30;5.45;;;3.58;;
75716;SDS011;64333;50.138;14.332;2023-07-20T05:59:55;4.97;;;3.47;;
75716;SDS011;64333;50.138;14.332;2023-07-20T06:02:20;4.57;;;3.10;;
75716;SDS011;64333;50.138;14.332;2023-07-20T06:04:46;4.22;;;3.10;;
75716;SDS011;64333;50.138;14.332;2023-07-20T06:07:11;4.57;;;2.87;;
75716;SDS011;64333;50.138;14.332;2023-07-20T06:09:37;3.10;;;2.80;;
75716;SDS011;64333;50.138;14.332;2023-07-20T06:12:02;3.80;;;2.95;;
75716;SDS011;64333;50.138;14.332;2023-07-20T06:14:27;3.63;;;2.75;;
75716;SDS011;64333;50.138;14.332;2023-07-20T06:16:53;3.90;;;2.63;;
75716;SDS011;64333;50.138;14.332;2023-07-20T06:19:18;3.55;;;2.75;;
75716;SDS011;64333;50.138;14.332;2023-07-20T06:21:43;5.03;;;2.80;;
75716;SDS011;64333;50.138;14.332;2023-07-20T06:24:09;15.57;;;5.53;;
75716;SDS011;64333;50.138;14.332;2023-07-20T06:26:34;5.75;;;2.72;;
75716;SDS011;64333;50.138;14.332;2023-07-20T06:29:05;4.32;;;2.63;;
75716;SDS011;64333;50.138;14.332;2023-07-20T06:31:34;3.67;;;2.45;;
75716;SDS011;64333;50.138;14.332;2023-07-20T06:34:00;5.05;;;2.67;;
75716;SDS011;64333;50.138;14.332;2023-07-20T06:36:26;3.28;;;2.28;;
75716;SDS011;64333;50.138;14.332;2023-07-20T06:38:53;2.63;;;2.20;;
75716;SDS011;64333;50.138;14.332;2023-07-20T06:41:19;2.45;;;2.13;;
75716;SDS011;64333;50.138;14.332;2023-07-20T06:43:44;5.77;;;2.37;;
75716;SDS011;64333;50.138;14.332;2023-07-20T06:46:10;4.35;;;2.50;;
75716;SDS011;64333;50.138;14.332;2023-07-20T06:48:35;2.50;;;2.20;;
75716;SDS011;64333;50.138;14.332;2023-07-20T06:51:00;3.37;;;2.40;;
75716;SDS011;64333;50.138;14.332;2023-07-20T06:53:25;3.63;;;2.53;;
75716;SDS011;64333;50.138;14.332;2023-07-20T06:55:51;2.92;;;2.53;;
75716;SDS011;64333;50.138;14.332;2023-07-20T06:58:16;2.45;;;1.90;;
75716;SDS011;64333;50.138;14.332;2023-07-20T07:00:41;2.95;;;1.85;;
75716;SDS011;64333;50.138;14.332;2023-07-20T07:03:07;6.28;;;2.85;;
75716;SDS011;64333;50.138;14.332;2023-07-20T07:05:35;2.80;;;2.20;;
75716;SDS011;64333;50.138;14.332;2023-07-20T07:08:00;4.32;;;2.00;;
75716;SDS011;64333;50.138;14.332;2023-07-20T07:10:25;3.30;;;2.20;;
75716;SDS011;64333;50.138;14.332;2023-07-20T07:12:51;2.35;;;2.15;;
75716;SDS011;64333;50.138;14.332;2023-07-20T07:15:16;5.63;;;3.30;;
75716;SDS011;64333;50.138;14.332;2023-07-20T07:17:41;2.50;;;2.30;;
75716;SDS011;64333;50.138;14.332;2023-07-20T07:20:08;4.53;;;2.67;;
75716;SDS011;64333;50.138;14.332;2023-07-20T07:22:34;3.13;;;2.13;;
75716;SDS011;64333;50.138;14.332;2023-07-20T07:24:59;3.03;;;2.10;;
75716;SDS011;64333;50.138;14.332;2023-07-20T07:27:24;2.10;;;1.90;;
75716;SDS011;64333;50.138;14.332;2023-07-20T07:29:49;2.25;;;2.05;;
75716;SDS011;64333;50.138;14.332;2023-07-20T07:32:15;2.72;;;1.85;;
75716;SDS011;64333;50.138;14.332;2023-07-20T07:34:40;2.72;;;1.80;;
75716;SDS011;64333;50.138;14.332;2023-07-20T07:37:06;8.70;;;2.42;;
75716;SDS011;64333;50.138;14.332;2023-07-20T07:39:31;3.20;;;1.85;;
75716;SDS011;64333;50.138;14.332;2023-07-20T07:41:57;2.63;;;1.90;;
75716;SDS011;64333;50.138;14.332;2023-07-20T07:44:22;3.67;;;1.90;;
75716;SDS011;64333;50.138;14.332;2023-07-20T07:46:48;19.45;;;3.20;;
75716;SDS011;64333;50.138;14.332;2023-07-20T07:49:14;4.95;;;1.95;;
75716;SDS011;64333;50.138;14.332;2023-07-20T07:51:39;2.78;;;1.92;;
75716;SDS011;64333;50.138;14.332;2023-07-20T07:54:04;2.27;;;1.50;;
75716;SDS011;64333;50.138;14.332;2023-07-20T07:56:30;2.07;;;1.43;;
75716;SDS011;64333;50.138;14.332;2023-07-20T07:58:55;8.82;;;2.35;;
75716;SDS011;64333;50.138;14.332;2023-07-20T08:01:20;5.90;;;2.30;;
75716;SDS011;64333;50.138;14.332;2023-07-20T08:03:46;2.05;;;1.60;;
75716;SDS011;64333;50.138;14.332;2023-07-20T08:06:15;3.88;;;1.52;;
75716;SDS011;64333;50.138;14.332;2023-07-20T08:08:41;2.22;;;1.70;;
75716;SDS011;64333;50.138;14.332;2023-07-20T08:11:07;2.70;;;1.90;;
75716;SDS011;64333;50.138;14.332;2023-07-20T08:13:32;2.22;;;2.03;;
75716;SDS011;64333;50.138;14.332;2023-07-20T08:15:58;3.55;;;1.85;;
75716;SDS011;64333;50.138;14.332;2023-07-20T08:18:23;7.20;;;2.70;;
75716;SDS011;64333;50.138;14.332;2023-07-20T08:20:48;6.10;;;1.60;;
75716;SDS011;64333;50.138;14.332;2023-07-20T08:23:14;2.55;;;1.63;;
75716;SDS011;64333;50.138;14.332;2023-07-20T08:25:39;2.42;;;1.58;;
75716;SDS011;64333;50.138;14.332;2023-07-20T08:28:08;3.38;;;1.42;;
75716;SDS011;64333;50.138;14.332;2023-07-20T08:30:44;2.17;;;1.70;;
75716;SDS011;64333;50.138;14.332;2023-07-20T08:33:10;2.85;;;1.70;;
75716;SDS011;64333;50.138;14.332;2023-07-20T08:35:36;2.97;;;1.70;;
75716;SDS011;64333;50.138;14.332;2023-07-20T08:38:01;2.30;;;1.73;;
75716;SDS011;64333;50.138;14.332;2023-07-20T08:40:27;1.90;;;1.70;;
75716;SDS011;64333;50.138;14.332;2023-07-20T08:42:52;4.65;;;2.00;;
75716;SDS011;64333;50.138;14.332;2023-07-20T08:45:18;8.95;;;1.95;;
75716;SDS011;64333;50.138;14.332;2023-07-20T08:47:43;3.10;;;1.73;;
75716;SDS011;64333;50.138;14.332;2023-07-20T08:50:10;7.05;;;2.08;;
75716;SDS011;64333;50.138;14.332;2023-07-20T08:52:36;23.85;;;3.97;;
75716;SDS011;64333;50.138;14.332;2023-07-20T08:55:01;2.03;;;1.57;;
75716;SDS011;64333;50.138;14.332;2023-07-20T08:57:29;3.35;;;1.58;;
75716;SDS011;64333;50.138;14.332;2023-07-20T08:59:55;1.73;;;1.45;;
75716;SDS011;64333;50.138;14.332;2023-07-20T09:02:20;7.22;;;2.30;;
75716;SDS011;64333;50.138;14.332;2023-07-20T09:04:49;3.58;;;1.80;;
75716;SDS011;64333;50.138;14.332;2023-07-20T09:07:14;3.43;;;1.43;;
75716;SDS011;64333;50.138;14.332;2023-07-20T09:09:40;2.38;;;1.58;;
75716;SDS011;64333;50.138;14.332;2023-07-20T09:12:15;3.03;;;2.00;;
75716;SDS011;64333;50.138;14.332;2023-07-20T09:14:43;4.63;;;2.05;;
75716;SDS011;64333;50.138;14.332;2023-07-20T09:17:12;8.10;;;2.03;;
75716;SDS011;64333;50.138;14.332;2023-07-20T09:19:37;8.57;;;2.13;;
75716;SDS011;64333;50.138;14.332;2023-07-20T09:22:03;11.38;;;2.50;;
75716;SDS011;64333;50.138;14.332;2023-07-20T09:24:30;4.47;;;1.77;;
75716;SDS011;64333;50.138;14.332;2023-07-20T09:26:56;1.98;;;1.63;;
75716;SDS011;64333;50.138;14.332;2023-07-20T09:29:22;2.37;;;1.70;;
75716;SDS011;64333;50.138;14.332;2023-07-20T09:31:59;2.90;;;1.60;;
75716;SDS011;64333;50.138;14.332;2023-07-20T09:34:28;2.00;;;1.52;;
75716;SDS011;64333;50.138;14.332;2023-07-20T09:36:53;1.58;;;1.40;;
75716;SDS011;64333;50.138;14.332;2023-07-20T09:39:19;1.87;;;1.40;;
75716;SDS011;64333;50.138;14.332;2023-07-20T09:41:45;2.78;;;1.70;;
75716;SDS011;64333;50.138;14.332;2023-07-20T09:44:10;2.75;;;1.55;;
75716;SDS011;64333;50.138;14.332;2023-07-20T09:46:42;1.98;;;1.65;;
75716;SDS011;64333;50.138;14.332;2023-07-20T09:49:08;2.22;;;1.45;;
75716;SDS011;64333;50.138;14.332;2023-07-20T09:51:34;2.28;;;1.42;;
75716;SDS011;64333;50.138;14.332;2023-07-20T09:53:59;3.45;;;1.70;;
75716;SDS011;64333;50.138;14.332;2023-07-20T09:56:24;1.75;;;1.48;;
75716;SDS011;64333;50.138;14.332;2023-07-20T09:58:50;2.55;;;1.70;;
75716;SDS011;64333;50.138;14.332;2023-07-20T10:01:17;1.50;;;1.33;;
75716;SDS011;64333;50.138;14.332;2023-07-20T10:03:43;4.40;;;1.70;;
75716;SDS011;64333;50.138;14.332;2023-07-20T10:06:10;3.25;;;2.22;;
75716;SDS011;64333;50.138;14.332;2023-07-20T10:08:41;3.47;;;2.30;;
75716;SDS011;64333;50.138;14.332;2023-07-20T10:11:07;1.50;;;1.40;;
75716;SDS011;64333;50.138;14.332;2023-07-20T10:13:33;2.50;;;1.50;;
75716;SDS011;64333;50.138;14.332;2023-07-20T10:20:54;2.22;;;1.52;;
75716;SDS011;64333;50.138;14.332;2023-07-20T10:23:19;4.00;;;1.35;;
75716;SDS011;64333;50.138;14.332;2023-07-20T10:25:44;2.60;;;1.13;;
75716;SDS011;64333;50.138;14.332;2023-07-20T10:28:10;2.00;;;1.63;;
75716;SDS011;64333;50.138;14.332;2023-07-20T10:30:36;1.55;;;1.42;;
75716;SDS011;64333;50.138;14.332;2023-07-20T10:33:05;2.35;;;1.83;;
75716;SDS011;64333;50.138;14.332;2023-07-20T10:35:30;2.42;;;2.08;;
75716;SDS011;64333;50.138;14.332;2023-07-20T10:38:02;1.88;;;1.73;;
75716;SDS011;64333;50.138;14.332;2023-07-20T10:40:28;2.70;;;1.63;;
75716;SDS011;64333;50.138;14.332;2023-07-20T10:43:16;6.18;;;2.20;;
75716;SDS011;64333;50.138;14.332;2023-07-20T10:45:51;2.13;;;1.90;;
75716;SDS011;64333;50.138;14.332;2023-07-20T10:48:21;2.08;;;1.60;;
75716;SDS011;64333;50.138;14.332;2023-07-20T10:53:31;2.63;;;2.20;;
75716;SDS011;64333;50.138;14.332;2023-07-20T10:56:15;3.38;;;1.80;;
75716;SDS011;64333;50.138;14.332;2023-07-20T10:58:40;2.80;;;1.67;;
75716;SDS011;64333;50.138;14.332;2023-07-20T11:01:10;1.70;;;1.60;;
75716;SDS011;64333;50.138;14.332;2023-07-20T11:08:45;3.15;;;1.92;;
75716;SDS011;64333;50.138;14.332;2023-07-20T11:11:29;2.30;;;1.60;;
75716;SDS011;64333;50.138;14.332;2023-07-20T11:16:31;2.00;;;1.65;;
75716;SDS011;64333;50.138;14.332;2023-07-20T11:18:57;2.00;;;1.70;;
75716;SDS011;64333;50.138;14.332;2023-07-20T11:21:23;1.88;;;1.50;;
75716;SDS011;64333;50.138;14.332;2023-07-20T11:23:48;1.87;;;1.50;;
75716;SDS011;64333;50.138;14.332;2023-07-20T11:26:14;3.80;;;1.70;;
75716;SDS011;64333;50.138;14.332;2023-07-20T11:28:40;3.22;;;1.70;;
75716;SDS011;64333;50.138;14.332;2023-07-20T11:31:06;3.17;;;1.67;;
75716;SDS011;64333;50.138;14.332;2023-07-20T11:33:31;3.23;;;1.33;;
75716;SDS011;64333;50.138;14.332;2023-07-20T11:35:56;6.37;;;1.70;;
75716;SDS011;64333;50.138;14.332;2023-07-20T11:38:23;2.35;;;1.50;;
75716;SDS011;64333;50.138;14.332;2023-07-20T11:40:48;3.70;;;1.50;;
75716;SDS011;64333;50.138;14.332;2023-07-20T11:43:14;2.92;;;1.60;;
75716;SDS011;64333;50.138;14.332;2023-07-20T11:45:40;2.35;;;1.20;;
75716;SDS011;64333;50.138;14.332;2023-07-20T11:48:05;3.20;;;1.47;;
75716;SDS011;64333;50.138;14.332;2023-07-20T11:50:31;2.58;;;1.58;;
75716;SDS011;64333;50.138;14.332;2023-07-20T11:52:56;3.83;;;1.60;;
75716;SDS011;64333;50.138;14.332;2023-07-20T11:55:22;1.75;;;1.50;;
75716;SDS011;64333;50.138;14.332;2023-07-20T12:00:28;1.92;;;1.40;;
75716;SDS011;64333;50.138;14.332;2023-07-20T12:02:53;1.77;;;1.38;;
75716;SDS011;64333;50.138;14.332;2023-07-20T12:05:19;2.33;;;1.70;;
75716;SDS011;64333;50.138;14.332;2023-07-20T12:07:44;3.88;;;1.67;;
75716;SDS011;64333;50.138;14.332;2023-07-20T12:10:10;3.75;;;1.55;;
75716;SDS011;64333;50.138;14.332;2023-07-20T12:12:42;3.88;;;1.63;;
75716;SDS011;64333;50.138;14.332;2023-07-20T12:15:19;2.88;;;1.80;;
75716;SDS011;64333;50.138;14.332;2023-07-20T12:17:46;2.38;;;1.70;;
75716;SDS011;64333;50.138;14.332;2023-07-20T12:20:11;2.03;;;1.70;;
75716;SDS011;64333;50.138;14.332;2023-07-20T12:22:40;4.05;;;1.77;;
75716;SDS011;64333;50.138;14.332;2023-07-20T12:25:08;2.92;;;1.45;;
75716;SDS011;64333;50.138;14.332;2023-07-20T12:27:37;2.90;;;1.38;;
75716;SDS011;64333;50.138;14.332;2023-07-20T12:30:06;2.58;;;1.38;;
75716;SDS011;64333;50.138;14.332;2023-07-20T12:32:32;3.13;;;1.38;;
75716;SDS011;64333;50.138;14.332;2023-07-20T12:34:57;2.65;;;1.85;;
75716;SDS011;64333;50.138;14.332;2023-07-20T12:37:25;3.60;;;1.45;;
75716;SDS011;64333;50.138;14.332;2023-07-20T12:39:51;2.33;;;1.30;;
75716;SDS011;64333;50.138;14.332;2023-07-20T12:42:16;2.03;;;1.43;;
75716;SDS011;64333;50.138;14.332;2023-07-20T12:44:42;2.17;;;1.38;;
75716;SDS011;64333;50.138;14.332;2023-07-20T12:47:07;2.13;;;1.47;;
75716;SDS011;64333;50.138;14.332;2023-07-20T12:49:32;4.93;;;3.63;;
75716;SDS011;64333;50.138;14.332;2023-07-20T12:51:58;1.70;;;1.50;;
75716;SDS011;64333;50.138;14.332;2023-07-20T12:54:23;1.85;;;1.50;;
75716;SDS011;64333;50.138;14.332;2023-07-20T12:56:48;4.00;;;1.30;;
75716;SDS011;64333;50.138;14.332;2023-07-20T12:59:14;1.95;;;1.27;;
75716;SDS011;64333;50.138;14.332;2023-07-20T13:01:39;1.60;;;1.33;;
75716;SDS011;64333;50.138;14.332;2023-07-20T13:04:06;1.50;;;1.40;;
75716;SDS011;64333;50.138;14.332;2023-07-20T13:06:34;1.60;;;1.40;;
75716;SDS011;64333;50.138;14.332;2023-07-20T13:08:59;2.40;;;1.50;;
75716;SDS011;64333;50.138;14.332;2023-07-20T13:11:25;1.45;;;1.35;;
75716;SDS011;64333;50.138;14.332;2023-07-20T13:13:50;2.22;;;1.50;;
75716;SDS011;64333;50.138;14.332;2023-07-20T13:16:15;2.50;;;1.40;;
75716;SDS011;64333;50.138;14.332;2023-07-20T13:18:41;3.65;;;1.50;;
75716;SDS011;64333;50.138;14.332;2023-07-20T13:21:06;1.93;;;1.70;;
75716;SDS011;64333;50.138;14.332;2023-07-20T13:23:36;2.15;;;1.65;;
75716;SDS011;64333;50.138;14.332;2023-07-20T13:26:02;2.40;;;1.40;;
75716;SDS011;64333;50.138;14.332;2023-07-20T13:28:27;2.67;;;1.42;;
75716;SDS011;64333;50.138;14.332;2023-07-20T13:30:52;1.77;;;1.40;;
75716;SDS011;64333;50.138;14.332;2023-07-20T13:33:17;2.47;;;1.70;;
75716;SDS011;64333;50.138;14.332;2023-07-20T13:35:43;1.95;;;1.60;;
75716;SDS011;64333;50.138;14.332;2023-07-20T13:38:08;1.88;;;1.23;;
75716;SDS011;64333;50.138;14.332;2023-07-20T13:40:34;1.88;;;1.70;;
75716;SDS011;64333;50.138;14.332;2023-07-20T13:43:00;1.75;;;1.40;;
75716;SDS011;64333;50.138;14.332;2023-07-20T13:45:25;1.93;;;1.53;;
75716;SDS011;64333;50.138;14.332;2023-07-20T13:47:50;1.70;;;1.60;;
75716;SDS011;64333;50.138;14.332;2023-07-20T13:50:16;2.40;;;1.70;;
75716;SDS011;64333;50.138;14.332;2023-07-20T13:52:41;2.10;;;1.33;;
75716;SDS011;64333;50.138;14.332;2023-07-20T13:55:06;1.57;;;1.00;;
75716;SDS011;64333;50.138;14.332;2023-07-20T13:57:32;3.10;;;1.13;;
75716;SDS011;64333;50.138;14.332;2023-07-20T13:59:57;2.80;;;1.20;;
75716;SDS011;64333;50.138;14.332;2023-07-20T14:02:23;1.13;;;1.02;;
75716;SDS011;64333;50.138;14.332;2023-07-20T14:04:48;1.20;;;1.10;;
75716;SDS011;64333;50.138;14.332;2023-07-20T14:07:13;1.70;;;1.17;;
75716;SDS011;64333;50.138;14.332;2023-07-20T14:09:39;1.53;;;1.10;;
75716;SDS011;64333;50.138;14.332;2023-07-20T14:12:04;1.75;;;1.25;;
75716;SDS011;64333;50.138;14.332;2023-07-20T14:14:30;2.97;;;1.23;;
75716;SDS011;64333;50.138;14.332;2023-07-20T14:16:55;1.27;;;1.17;;
75716;SDS011;64333;50.138;14.332;2023-07-20T14:19:21;2.38;;;1.30;;
75716;SDS011;64333;50.138;14.332;2023-07-20T14:21:46;2.47;;;1.67;;
75716;SDS011;64333;50.138;14.332;2023-07-20T14:24:12;1.90;;;1.33;;
75716;SDS011;64333;50.138;14.332;2023-07-20T14:26:37;3.30;;;1.30;;
75716;SDS011;64333;50.138;14.332;2023-07-20T14:29:02;2.23;;;1.23;;
75716;SDS011;64333;50.138;14.332;2023-07-20T14:31:27;1.42;;;1.30;;
75716;SDS011;64333;50.138;14.332;2023-07-20T14:33:53;2.10;;;1.20;;
75716;SDS011;64333;50.138;14.332;2023-07-20T14:36:18;1.67;;;1.17;;
75716;SDS011;64333;50.138;14.332;2023-07-20T14:38:43;2.70;;;1.33;;
75716;SDS011;64333;50.138;14.332;2023-07-20T14:41:08;4.38;;;1.50;;
75716;SDS011;64333;50.138;14.332;2023-07-20T14:43:34;3.57;;;1.40;;
75716;SDS011;64333;50.138;14.332;2023-07-20T14:45:59;1.45;;;1.20;;
75716;SDS011;64333;50.138;14.332;2023-07-20T14:48:25;3.50;;;1.02;;
75716;SDS011;64333;50.138;14.332;2023-07-20T14:50:50;2.23;;;1.40;;
75716;SDS011;64333;50.138;14.332;2023-07-20T14:53:15;2.27;;;1.30;;